»·PEaware :: SKY55 KDLS-KMMV

SKY55 :: KDLS-KMMV

FLIGHT INFORMATION

Flight Status: Arrived
Operator:
Sky High Charters
More flights by this operator :: More flights under this callsign
Pilot: Anonymous 29304 (29304)
Aircraft: BEECH AIRCRAFT BARON
(BE58)
More flights by this aircraft type
Origin: KDLS Columbia Gorge Regl/The Dalle
United States
Destination: KMMV McMinnville Mun
United States
More flights between these airports :: More routes between these airports
Route: +DALLS1 LTJ V112 BTG V287 UBG
File this flight plan on PilotEdge
Remarks:
Altitude:
(Current/Filed)
8,000ft
Speed:
(Current/Filed)
150kts
Departed: 06-Dec-20 08:27 AM
Arrived: 06-Dec-20 09:16 AM
Distance/Time
Traveled:
87nm/0:49
Distance/Time
To Go:
Arrived

Flight Plot

Page will automatically refresh every two minutes.

Flight plan parsing failed; only flown route is shown


Map Options




Map Legend


Flown Route
Filed Route
Departure Airport
Arrival Airport
Navaid (VOR, NDB)
Fix

Horizontal Profiles

Position Reports

Time Latitude Longitude Heading Altitude Ground
Speed
06-Dec-20 08:10 45.618945 -121.172298 113 219ft 0kts
06-Dec-20 08:11 45.618945 -121.172298 113 219ft 0kts
06-Dec-20 08:12 45.618945 -121.172298 113 219ft 0kts
06-Dec-20 08:13 45.618945 -121.172298 113 219ft 0kts
06-Dec-20 08:14 45.618945 -121.172297 113 219ft 0kts
06-Dec-20 08:15 45.618945 -121.172297 113 219ft 0kts
06-Dec-20 08:16 45.618945 -121.172297 113 219ft 0kts
06-Dec-20 08:17 45.618945 -121.172297 113 219ft 0kts
06-Dec-20 08:18 45.618945 -121.172297 113 219ft 0kts
06-Dec-20 08:19 45.618946 -121.172220 65 219ft 2kts
06-Dec-20 08:20 45.619297 -121.175283 268 215ft 8kts
06-Dec-20 08:21 45.620140 -121.177019 307 213ft 0kts
06-Dec-20 08:22 45.620139 -121.177019 307 213ft 0kts
06-Dec-20 08:24 45.620139 -121.177019 307 213ft 0kts
06-Dec-20 08:25 45.620139 -121.177019 307 213ft 0kts
06-Dec-20 08:26 45.620836 -121.177271 83 211ft 0kts
06-Dec-20 08:27 45.617969 -121.143894 123 1072ft 122kts
06-Dec-20 08:28 45.593465 -121.111084 173 2803ft 125kts
06-Dec-20 08:29 45.559505 -121.116456 170 4356ft 127kts
06-Dec-20 08:30 45.559000 -121.080376 8 5613ft 129kts
06-Dec-20 08:31 45.593291 -121.086460 352 7074ft 125kts
06-Dec-20 08:32 45.630234 -121.090978 354 8092ft 136kts
06-Dec-20 08:33 45.672598 -121.093794 358 8059ft 165kts
06-Dec-20 08:34 45.695336 -121.139510 284 8205ft 160kts
06-Dec-20 08:35 45.704164 -121.199857 293 8060ft 146kts
06-Dec-20 08:36 45.717451 -121.255810 279 8154ft 156kts
06-Dec-20 08:37 45.719864 -121.319915 274 8139ft 164kts
06-Dec-20 08:38 45.721613 -121.386115 274 8090ft 166kts
06-Dec-20 08:39 45.723370 -121.452186 274 8084ft 166kts
06-Dec-20 08:39 45.724824 -121.507628 274 8126ft 168kts
06-Dec-20 08:41 45.726854 -121.586544 274 8095ft 171kts
06-Dec-20 08:42 45.728520 -121.653889 274 8067ft 165kts
06-Dec-20 08:43 45.730104 -121.719120 274 8074ft 163kts
06-Dec-20 08:43 45.731391 -121.772961 275 8059ft 163kts
06-Dec-20 08:45 45.733134 -121.848425 275 8097ft 160kts
06-Dec-20 08:46 45.734417 -121.912672 275 8100ft 162kts
06-Dec-20 08:46 45.735493 -121.966609 276 8097ft 163kts
06-Dec-20 08:48 45.737320 -122.042392 276 8096ft 163kts
06-Dec-20 08:49 45.738705 -122.107499 276 8096ft 163kts
06-Dec-20 08:49 45.739822 -122.161877 276 8096ft 163kts
06-Dec-20 08:50 45.741121 -122.226734 276 8096ft 163kts
06-Dec-20 08:51 45.742388 -122.291859 276 8096ft 163kts
06-Dec-20 08:52 45.743618 -122.356917 276 8096ft 163kts
06-Dec-20 08:53 45.744809 -122.421951 276 8093ft 163kts
06-Dec-20 08:54 45.745951 -122.486172 275 7690ft 160kts
06-Dec-20 08:55 45.747142 -122.551476 275 6757ft 167kts
06-Dec-20 08:56 45.727239 -122.606399 208 6050ft 164kts
06-Dec-20 08:57 45.686734 -122.634272 201 5710ft 159kts
06-Dec-20 08:58 45.647196 -122.659734 204 5364ft 153kts
06-Dec-20 08:59 45.608781 -122.685040 204 5018ft 150kts
06-Dec-20 09:00 45.570897 -122.709995 204 4704ft 149kts
06-Dec-20 09:01 45.533351 -122.734749 204 4415ft 149kts
06-Dec-20 09:02 45.495680 -122.759551 204 4136ft 148kts
06-Dec-20 09:03 45.458215 -122.784128 204 3870ft 148kts
06-Dec-20 09:04 45.421287 -122.809512 206 3597ft 145kts
06-Dec-20 09:05 45.385598 -122.835337 208 3307ft 143kts
06-Dec-20 09:06 45.350330 -122.860638 207 3086ft 137kts
06-Dec-20 09:07 45.318530 -122.882618 209 3115ft 122kts
06-Dec-20 09:08 45.296444 -122.918802 237 3085ft 122kts
06-Dec-20 09:09 45.277587 -122.959377 239 2969ft 130kts
06-Dec-20 09:10 45.257860 -123.002865 239 2292ft 130kts
06-Dec-20 09:11 45.240471 -123.041160 240 1640ft 107kts
06-Dec-20 09:12 45.224877 -123.075458 239 1038ft 97kts
06-Dec-20 09:13 45.211627 -123.104595 239 612ft 86kts
06-Dec-20 09:14 45.199337 -123.131459 234 186ft 76kts
06-Dec-20 09:15 45.195028 -123.143070 21 146ft 14kts
06-Dec-20 09:16 45.197420 -123.138889 3 150ft 11kts
06-Dec-20 09:17 45.198717 -123.138677 54 150ft 0kts
06-Dec-20 09:18 45.198717 -123.138676 54 150ft 0kts
06-Dec-20 09:19 45.198717 -123.138677 54 150ft 0kts
06-Dec-20 09:20 45.198717 -123.138677 54 150ft 0kts
06-Dec-20 09:21 45.198717 -123.138677 54 150ft 0kts
06-Dec-20 09:22 45.198717 -123.138677 54 150ft 0kts
06-Dec-20 09:23 45.198717 -123.138677 54 150ft 0kts
06-Dec-20 09:24 45.198717 -123.138677 54 150ft 0kts
06-Dec-20 09:25 45.198717 -123.138677 54 150ft 0kts
06-Dec-20 09:26 45.198717 -123.138677 54 150ft 0kts
06-Dec-20 09:27 45.198717 -123.138677 54 150ft 0kts
06-Dec-20 09:28 45.198717 -123.138677 54 150ft 0kts
06-Dec-20 09:29 45.198717 -123.138677 54 150ft 0kts

Navigation Log

Ident Type
Flight plan parsing failed, navigation log unavailable